createdAt,value
2022-09-20T00:01:33.239Z,101877.50
2022-09-20T00:04:05.069Z,101884.50
2022-09-20T00:06:34.226Z,101881.00
2022-09-20T00:09:03.122Z,101882.84
2022-09-20T00:11:33.240Z,101882.88
2022-09-20T00:14:06.052Z,101881.09
2022-09-20T00:16:38.032Z,101872.25
2022-09-20T00:19:07.175Z,101884.56
2022-09-20T00:21:37.755Z,101880.25
2022-09-20T00:24:06.233Z,101870.69
2022-09-20T00:26:34.312Z,101875.94
2022-09-20T00:29:04.328Z,101873.34
2022-09-20T00:31:32.509Z,101883.75
2022-09-20T00:34:18.549Z,101875.03
2022-09-20T00:36:47.040Z,101876.75
2022-09-20T00:39:18.673Z,101872.38
2022-09-20T00:41:47.288Z,101881.34
2022-09-20T00:44:50.829Z,101874.22
2022-09-20T00:47:27.402Z,101884.66
2022-09-20T00:50:03.852Z,101892.56
2022-09-20T00:52:32.656Z,101889.00
2022-09-20T00:55:02.307Z,101889.00
2022-09-20T00:57:35.385Z,101872.44
2022-09-20T01:00:08.457Z,101889.81
2022-09-20T01:02:40.459Z,101882.78
2022-09-20T01:05:10.839Z,101887.13
2022-09-20T01:07:40.418Z,101888.91
2022-09-20T01:10:08.724Z,101869.69
2022-09-20T01:12:40.354Z,101876.75
2022-09-20T01:15:11.984Z,101882.91
2022-09-20T01:17:47.802Z,101881.91
2022-09-20T01:20:20.686Z,101882.78
2022-09-20T01:23:11.842Z,101874.13
2022-09-20T01:26:11.288Z,101882.88
2022-09-20T01:28:42.402Z,101879.38
2022-09-20T01:31:17.489Z,101879.38
2022-09-20T01:33:51.798Z,101862.84
2022-09-20T01:36:31.526Z,101871.59
2022-09-20T01:39:09.462Z,101864.56
2022-09-20T01:41:45.402Z,101868.06
2022-09-20T01:44:23.775Z,101876.00
2022-09-20T01:46:59.876Z,101885.59
2022-09-20T01:49:39.099Z,101886.50
2022-09-20T01:52:33.674Z,101888.34
2022-09-20T01:55:54.487Z,101883.16
2022-09-20T01:58:50.537Z,101888.44
2022-09-20T02:01:55.793Z,101882.28
2022-09-20T02:04:55.719Z,101881.50
2022-09-20T02:07:45.542Z,101878.00
2022-09-20T02:10:36.383Z,101876.22
2022-09-20T02:13:10.035Z,101889.41
2022-09-20T02:16:04.839Z,101891.94
2022-09-20T02:18:55.438Z,101883.13
2022-09-20T02:21:37.813Z,101877.06
2022-09-20T02:24:17.618Z,101900.72
2022-09-20T02:26:58.295Z,101900.75
2022-09-20T02:29:34.156Z,101891.13
2022-09-20T02:32:17.559Z,101903.38
2022-09-20T02:35:05.558Z,101896.38
2022-09-20T02:37:55.661Z,101894.66
2022-09-20T02:40:41.077Z,101899.91
2022-09-20T02:43:18.912Z,101892.88
2022-09-20T02:45:55.842Z,101879.75
2022-09-20T02:48:29.023Z,101904.28
2022-09-20T02:51:06.771Z,101883.25
2022-09-20T02:53:44.477Z,101894.63
2022-09-20T02:56:20.793Z,101886.69
2022-09-20T02:59:00.303Z,101889.34
2022-09-20T03:01:40.174Z,101880.59
2022-09-20T03:04:22.479Z,101902.50
2022-09-20T03:06:59.380Z,101904.28
2022-09-20T03:09:35.659Z,101905.16
2022-09-20T03:12:15.405Z,101904.28
2022-09-20T03:14:51.646Z,101913.91
2022-09-20T03:17:28.468Z,101931.44
2022-09-20T03:20:14.146Z,101906.88
2022-09-20T03:22:58.997Z,101925.28
2022-09-20T03:25:48.054Z,101927.91
2022-09-20T03:28:34.259Z,101896.25
2022-09-20T03:31:12.702Z,101921.63
2022-09-20T03:33:52.519Z,101916.31
2022-09-20T03:36:43.728Z,101899.56
2022-09-20T03:39:48.322Z,101902.97
2022-09-20T03:42:19.091Z,101924.75
2022-09-20T03:45:08.489Z,101921.06
2022-09-20T03:47:55.682Z,101925.44
2022-09-20T03:51:02.013Z,101918.50
2022-09-20T03:53:52.410Z,101918.59
2022-09-20T03:56:46.158Z,101911.72
2022-09-20T03:59:30.384Z,101910.88
2022-09-20T04:02:18.681Z,101908.22
2022-09-20T04:04:52.021Z,101909.00
2022-09-20T04:07:26.239Z,101913.38
2022-09-20T04:10:25.718Z,101915.94
2022-09-20T04:13:20.584Z,101896.59
2022-09-20T04:16:03.129Z,101915.75
2022-09-20T04:18:38.673Z,101921.84
2022-09-20T04:21:15.264Z,101917.41
2022-09-20T04:23:51.944Z,101918.25
2022-09-20T04:26:27.172Z,101929.69
2022-09-20T04:29:02.068Z,101896.38
2022-09-20T04:31:53.324Z,101922.53
2022-09-20T04:34:51.618Z,101913.69
2022-09-20T04:37:27.375Z,101903.88
2022-09-20T04:40:08.192Z,101924.03
2022-09-20T04:43:03.054Z,101903.09
2022-09-20T04:46:16.383Z,101924.03
2022-09-20T04:49:17.849Z,101917.94
2022-09-20T04:52:13.232Z,101924.84
2022-09-20T04:55:13.217Z,101913.50
2022-09-20T04:58:19.281Z,101919.66
2022-09-20T05:01:17.120Z,101914.44
2022-09-20T05:04:29.895Z,101920.56
2022-09-20T05:07:33.111Z,101924.06
2022-09-20T05:10:31.257Z,101931.97
2022-09-20T05:13:22.225Z,101940.72
2022-09-20T05:15:59.664Z,101928.56
2022-09-20T05:18:59.449Z,101932.00
2022-09-20T05:21:54.942Z,101940.78
2022-09-20T05:24:44.132Z,101943.34
2022-09-20T05:27:31.016Z,101938.00
2022-09-20T05:30:08.806Z,101945.63
2022-09-20T05:32:57.015Z,101945.50
2022-09-20T05:35:32.073Z,101940.97
2022-09-20T05:38:06.822Z,101954.91
2022-09-20T05:40:52.647Z,101945.19
2022-09-20T05:43:28.771Z,101925.69
2022-09-20T05:46:06.590Z,101935.25
2022-09-20T05:48:44.267Z,101933.44
2022-09-20T05:51:28.643Z,101943.78
2022-09-20T05:54:41.670Z,101944.66
2022-09-20T05:57:25.134Z,101949.69
2022-09-20T06:00:04.412Z,101958.56
2022-09-20T06:02:48.657Z,101948.13
2022-09-20T06:05:18.655Z,101956.75
2022-09-20T06:08:05.416Z,101937.47
2022-09-20T06:10:56.183Z,101950.56
2022-09-20T06:13:51.289Z,101939.13
2022-09-20T06:16:29.093Z,101957.38
2022-09-20T06:19:06.342Z,101966.06
2022-09-20T06:21:46.425Z,101957.19
2022-09-20T06:24:31.502Z,101956.16
2022-09-20T06:27:04.195Z,101948.97
2022-09-20T06:29:37.472Z,101948.09
2022-09-20T06:32:05.696Z,101962.03
2022-09-20T06:34:33.918Z,101960.16
2022-09-20T06:37:35.669Z,101942.72
2022-09-20T06:40:34.040Z,101943.00
2022-09-20T06:43:04.168Z,101947.41
2022-09-20T06:45:33.837Z,101961.91
2022-09-20T06:48:02.493Z,101943.66
2022-09-20T06:50:30.978Z,101950.25
2022-09-20T06:52:59.253Z,101942.94
2022-09-20T06:55:32.038Z,101943.81
2022-09-20T06:58:00.509Z,101951.19
2022-09-20T07:00:28.493Z,101927.91
2022-09-20T07:02:57.962Z,101950.44
2022-09-20T07:05:26.644Z,101964.72
2022-09-20T07:07:58.415Z,101954.16
2022-09-20T07:10:28.663Z,101949.19
2022-09-20T07:13:00.483Z,101961.19
2022-09-20T07:15:28.865Z,101952.38
2022-09-20T07:17:59.599Z,101958.56
2022-09-20T07:20:27.895Z,101954.56
2022-09-20T07:22:56.067Z,101961.06
2022-09-20T07:25:24.448Z,101983.09
2022-09-20T07:27:52.735Z,101991.88
2022-09-20T07:30:22.699Z,101961.47
2022-09-20T07:32:51.129Z,101979.28
2022-09-20T07:35:20.832Z,101975.94
2022-09-20T07:37:48.782Z,101976.69
2022-09-20T07:40:17.229Z,101981.78
2022-09-20T07:42:46.110Z,101995.75
2022-09-20T07:45:15.554Z,102004.16
2022-09-20T07:47:44.906Z,102014.50
2022-09-20T07:50:12.972Z,102018.19
2022-09-20T07:53:03.944Z,102037.75
2022-09-20T07:55:32.084Z,102066.44
2022-09-20T07:57:59.910Z,102105.94
2022-09-20T08:00:27.754Z,102145.63
2022-09-20T08:03:01.792Z,102174.78
2022-09-20T08:05:29.770Z,102200.75
2022-09-20T08:07:59.255Z,102199.75
2022-09-20T08:10:29.664Z,102175.28
2022-09-20T08:15:49.249Z,102175.50
2022-09-20T08:18:18.681Z,102204.44
2022-09-20T08:20:51.192Z,102197.06
2022-09-20T08:23:23.798Z,102194.81
2022-09-20T08:25:53.630Z,102201.13
2022-09-20T08:28:21.618Z,102178.75
2022-09-20T08:30:49.655Z,102181.63
2022-09-20T08:33:17.870Z,102140.38
2022-09-20T08:35:49.762Z,102066.56
2022-09-20T08:41:13.662Z,101846.81
2022-09-20T08:43:49.877Z,101862.19
2022-09-20T08:46:23.240Z,101862.84
2022-09-20T08:48:53.573Z,101765.06
2022-09-20T08:51:26.611Z,101360.97
2022-09-20T08:53:57.238Z,101132.63
2022-09-20T08:56:32.751Z,100036.06
2022-09-20T08:59:08.020Z,100513.41
2022-09-20T09:01:36.806Z,100658.69
2022-09-20T09:04:14.417Z,100865.41
2022-09-20T09:06:50.858Z,100705.34
2022-09-20T09:09:22.184Z,100611.47
2022-09-20T09:11:53.315Z,100567.41
2022-09-20T09:14:44.636Z,100501.72
2022-09-20T09:17:17.362Z,100554.72
2022-09-20T09:19:49.461Z,100508.56
2022-09-20T09:22:22.975Z,100561.06
2022-09-20T09:25:26.887Z,100550.31
2022-09-20T09:28:06.326Z,100452.31
2022-09-20T09:30:41.689Z,100485.94
2022-09-20T09:33:25.235Z,100545.75
2022-09-20T09:36:01.035Z,100547.28
2022-09-20T09:38:31.644Z,100461.47
2022-09-20T09:41:03.241Z,100461.31
2022-09-20T09:43:39.931Z,100316.09
2022-09-20T09:46:21.385Z,100318.72
2022-09-20T09:49:06.674Z,100377.28
2022-09-20T09:51:37.405Z,100419.03
2022-09-20T09:54:18.625Z,100536.31
2022-09-20T09:57:00.299Z,100565.03
2022-09-20T09:59:44.413Z,100594.69
2022-09-20T10:02:32.569Z,100604.63
2022-09-20T10:05:11.036Z,100679.09
2022-09-20T10:07:47.055Z,100734.44
2022-09-20T10:10:31.778Z,100775.16
2022-09-20T10:13:13.035Z,100738.63
2022-09-20T10:15:53.572Z,100660.81
2022-09-20T10:18:33.017Z,100623.13
2022-09-20T10:21:10.132Z,100665.16
2022-09-20T10:24:03.595Z,100590.59
2022-09-20T10:26:49.127Z,100668.09
2022-09-20T10:29:30.273Z,100704.94
2022-09-20T10:32:14.111Z,100670.34
2022-09-20T10:35:00.753Z,100817.19
2022-09-20T10:37:37.905Z,100821.25
2022-09-20T10:40:17.847Z,100843.19
2022-09-20T10:43:07.705Z,100832.59
2022-09-20T10:46:08.848Z,100925.91
2022-09-20T10:48:39.623Z,100900.59
2022-09-20T10:51:15.851Z,100926.03
2022-09-20T10:53:52.836Z,100904.13
2022-09-20T10:56:30.298Z,100971.75
2022-09-20T10:59:19.448Z,100893.09
2022-09-20T11:02:01.545Z,100973.38
2022-09-20T11:05:06.426Z,100874.09
2022-09-20T11:07:52.561Z,100890.31
2022-09-20T11:10:24.305Z,100938.69
2022-09-20T11:12:59.510Z,100899.09
2022-09-20T11:15:33.488Z,100958.41
2022-09-20T11:18:09.748Z,100934.31
2022-09-20T11:20:46.073Z,100931.41
2022-09-20T11:23:20.773Z,100913.16
2022-09-20T11:25:51.831Z,100874.78
2022-09-20T11:28:25.624Z,100848.44
2022-09-20T11:31:01.879Z,100883.47
2022-09-20T11:33:39.255Z,100868.56
2022-09-20T11:36:16.549Z,100882.47
2022-09-20T11:38:53.228Z,100898.44
2022-09-20T11:41:27.543Z,100877.75
2022-09-20T11:43:58.441Z,100867.56
2022-09-20T11:46:30.226Z,100879.72
2022-09-20T11:49:02.996Z,100798.03
2022-09-20T11:51:57.076Z,100770.13
2022-09-20T11:54:54.755Z,100663.06
2022-09-20T11:57:23.924Z,100654.88
2022-09-20T11:59:56.337Z,100651.56
2022-09-20T12:02:30.190Z,100670.53
2022-09-20T12:04:59.773Z,100661.66
2022-09-20T12:07:35.201Z,100694.75
2022-09-20T12:10:08.585Z,100725.78
2022-09-20T12:12:41.586Z,100724.00
2022-09-20T12:15:26.091Z,100715.09
2022-09-20T12:18:38.012Z,100725.56
2022-09-20T12:21:15.329Z,100726.75
2022-09-20T12:24:17.563Z,100738.44
2022-09-20T12:26:49.476Z,100789.03
2022-09-20T12:29:51.710Z,100743.16
2022-09-20T12:32:48.778Z,100803.00
2022-09-20T12:35:59.980Z,100850.91
2022-09-20T12:38:39.881Z,100732.75
2022-09-20T12:41:16.040Z,100770.78
2022-09-20T12:44:27.724Z,100687.63
2022-09-20T12:46:59.343Z,100787.72
2022-09-20T12:50:00.563Z,100754.75
2022-09-20T12:52:57.473Z,100700.06
2022-09-20T12:55:43.817Z,100745.94
2022-09-20T12:58:34.780Z,100754.09
2022-09-20T13:01:29.335Z,100694.19
2022-09-20T13:04:35.992Z,100788.81
2022-09-20T13:07:44.039Z,100818.78
2022-09-20T13:10:24.888Z,100800.63
2022-09-20T13:12:57.335Z,100891.44
2022-09-20T13:15:25.339Z,100836.59
2022-09-20T13:17:57.907Z,100833.28
2022-09-20T13:20:31.451Z,100850.22
2022-09-20T13:23:02.642Z,100816.75
2022-09-20T13:25:32.145Z,100828.44
2022-09-20T13:28:08.308Z,100778.00
2022-09-20T13:30:36.297Z,100769.06
2022-09-20T13:33:21.858Z,100776.78
2022-09-20T13:35:54.535Z,100799.56
2022-09-20T13:38:29.949Z,100717.09
2022-09-20T13:41:04.762Z,100743.38
2022-09-20T13:43:38.737Z,100774.84
2022-09-20T13:46:11.642Z,100797.69
2022-09-20T13:48:40.782Z,100842.97
2022-09-20T13:51:18.948Z,100842.75
2022-09-20T13:53:50.526Z,100727.91
2022-09-20T13:56:22.784Z,100695.66
2022-09-20T13:58:52.676Z,100733.66
2022-09-20T14:01:27.852Z,100745.75
2022-09-20T14:04:14.519Z,100705.59
2022-09-20T14:06:43.128Z,100702.44
2022-09-20T14:09:28.541Z,100693.41
2022-09-20T14:12:06.865Z,100774.91
2022-09-20T14:14:36.858Z,100800.09
2022-09-20T14:17:09.692Z,100747.50
2022-09-20T14:19:45.934Z,100716.25
2022-09-20T14:22:21.439Z,100645.34
2022-09-20T14:25:20.888Z,100598.75
2022-09-20T14:28:06.582Z,100553.72
2022-09-20T14:30:36.500Z,100525.41
2022-09-20T14:33:08.022Z,100498.31
2022-09-20T14:35:36.474Z,100516.28
2022-09-20T14:38:10.465Z,100527.31
2022-09-20T14:40:49.859Z,100612.50
2022-09-20T14:43:27.923Z,100660.97
2022-09-20T14:45:58.677Z,100800.19
2022-09-20T14:48:41.164Z,100706.34
2022-09-20T14:51:26.258Z,100613.66
2022-09-20T14:54:15.856Z,100557.97
2022-09-20T14:56:52.973Z,100578.44
2022-09-20T14:59:25.698Z,100573.47
2022-09-20T15:02:01.796Z,100573.91
2022-09-20T15:04:31.691Z,100562.50
2022-09-20T15:07:03.759Z,100582.78
2022-09-20T15:09:31.738Z,100545.66
2022-09-20T15:12:13.789Z,100513.28
2022-09-20T15:14:42.345Z,100525.50
2022-09-20T15:17:15.886Z,100496.59
2022-09-20T15:19:43.740Z,100504.91
2022-09-20T15:22:12.309Z,100512.72
2022-09-20T15:24:42.441Z,100514.50
2022-09-20T15:27:13.319Z,100501.72
2022-09-20T15:29:41.769Z,100472.91
2022-09-20T15:32:11.969Z,100500.94
2022-09-20T15:34:39.934Z,100534.06
2022-09-20T15:37:08.221Z,100545.16
2022-09-20T15:39:36.659Z,100555.53
2022-09-20T15:42:05.717Z,100568.38
2022-09-20T15:44:35.315Z,100582.25
2022-09-20T15:47:04.579Z,100612.84
2022-09-20T15:49:33.319Z,100607.59
2022-09-20T15:52:02.381Z,100663.47
2022-09-20T15:54:30.318Z,100643.19
2022-09-20T15:56:58.446Z,100636.56
2022-09-20T15:59:29.767Z,100611.00
2022-09-20T16:02:08.441Z,100603.81
2022-09-20T16:04:37.096Z,100616.03
2022-09-20T16:07:05.707Z,100595.19
2022-09-20T16:09:35.011Z,100588.31
2022-09-20T16:12:04.558Z,100540.28
2022-09-20T16:14:32.936Z,100514.56
2022-09-20T16:17:02.461Z,100441.66
2022-09-20T16:19:30.544Z,100459.38
2022-09-20T16:21:59.518Z,100479.41
2022-09-20T16:24:29.657Z,100602.59
2022-09-20T16:26:58.814Z,100688.38
2022-09-20T16:29:27.674Z,100733.38
2022-09-20T16:31:57.295Z,100767.81
2022-09-20T16:34:31.577Z,100905.09
2022-09-20T16:37:00.977Z,100893.47
2022-09-20T16:39:30.575Z,100839.44
2022-09-20T16:42:01.013Z,100789.97
2022-09-20T16:44:29.150Z,100684.56
2022-09-20T16:47:01.125Z,100720.53
2022-09-20T16:49:31.520Z,100791.47
2022-09-20T16:51:59.406Z,100849.00
2022-09-20T16:54:31.710Z,100907.84
2022-09-20T16:57:00.115Z,101010.53
2022-09-20T16:59:28.125Z,101094.38
2022-09-20T17:01:56.052Z,101156.59
2022-09-20T17:04:30.419Z,101517.19
2022-09-20T17:07:01.777Z,102361.19
2022-09-20T17:09:29.532Z,102146.16
2022-09-20T17:11:57.585Z,102167.22
2022-09-20T17:14:25.758Z,102188.53
2022-09-20T17:16:53.791Z,102173.88
2022-09-20T17:19:22.102Z,102213.59
2022-09-20T17:21:51.435Z,102218.78
2022-09-20T17:24:22.244Z,102218.69
2022-09-20T17:26:51.979Z,102199.16
2022-09-20T17:29:21.338Z,102204.50
2022-09-20T17:31:55.746Z,102208.19
2022-09-20T17:34:25.970Z,102187.91
2022-09-20T17:36:55.665Z,102202.16
2022-09-20T17:39:25.601Z,102212.19
2022-09-20T17:41:58.433Z,102215.38
2022-09-20T17:44:26.938Z,102241.19
2022-09-20T17:46:55.987Z,102231.44
2022-09-20T17:49:27.041Z,102237.50
2022-09-20T17:51:56.684Z,102229.13
2022-09-20T17:54:27.511Z,102230.22
2022-09-20T17:56:56.590Z,102254.03
2022-09-20T17:59:25.442Z,102270.81
2022-09-20T18:01:54.510Z,102241.25
2022-09-20T18:04:24.487Z,102288.78
2022-09-20T18:06:53.954Z,102274.06
2022-09-20T18:09:24.563Z,102282.03
2022-09-20T18:11:55.721Z,102311.31
2022-09-20T18:14:26.223Z,102312.31
2022-09-20T18:16:55.989Z,102311.47
2022-09-20T18:19:24.455Z,102299.44
2022-09-20T18:21:52.461Z,102304.59
2022-09-20T18:24:20.640Z,102309.97
2022-09-20T18:26:48.780Z,102292.31
2022-09-20T18:29:21.439Z,102297.81
2022-09-20T18:31:55.656Z,102300.47
2022-09-20T18:34:33.618Z,102297.13
2022-09-20T18:37:03.708Z,102273.59
2022-09-20T18:39:36.982Z,102302.50
2022-09-20T18:42:08.017Z,102298.47
2022-09-20T18:44:39.728Z,102299.28
2022-09-20T18:47:08.953Z,102298.69
2022-09-20T18:49:37.960Z,102311.25
2022-09-20T18:52:06.068Z,102302.72
2022-09-20T18:54:34.258Z,102281.03
2022-09-20T18:57:02.942Z,102273.38
2022-09-20T18:59:31.498Z,102292.75
2022-09-20T19:02:19.864Z,102288.66
2022-09-20T19:05:09.248Z,102292.41
2022-09-20T19:07:49.016Z,102291.66
2022-09-20T19:10:26.038Z,102294.16
2022-09-20T19:13:03.651Z,102299.47
2022-09-20T19:15:48.769Z,102297.09
2022-09-20T19:18:28.808Z,102302.69
2022-09-20T19:21:03.955Z,102303.06
2022-09-20T19:23:50.127Z,102314.78
2022-09-20T19:26:30.621Z,102339.56
2022-09-20T19:29:05.712Z,102344.09
2022-09-20T19:31:35.577Z,102358.19
2022-09-20T19:34:13.885Z,102384.31
2022-09-20T19:36:55.484Z,102358.47
2022-09-20T19:39:31.585Z,102324.38
2022-09-20T19:42:07.214Z,102339.53
2022-09-20T19:44:47.885Z,102352.81
2022-09-20T19:47:30.752Z,102366.72
2022-09-20T19:50:11.087Z,102359.97
2022-09-20T19:52:40.057Z,102352.31
2022-09-20T19:55:12.463Z,102376.69
2022-09-20T19:57:46.976Z,102352.06
2022-09-20T20:00:23.887Z,102368.16
2022-09-20T20:02:52.633Z,102358.63
2022-09-20T20:05:26.293Z,102369.91
2022-09-20T20:08:08.365Z,102356.75
2022-09-20T20:10:49.801Z,102376.22
2022-09-20T20:13:44.891Z,102371.00
2022-09-20T20:16:16.768Z,102366.63
2022-09-20T20:19:00.857Z,102357.88
2022-09-20T20:21:38.538Z,102341.19
2022-09-20T20:24:18.315Z,102364.84
2022-09-20T20:26:47.773Z,102366.66
2022-09-20T20:29:15.818Z,102355.13
2022-09-20T20:31:43.983Z,102358.75
2022-09-20T20:34:16.114Z,102385.03
2022-09-20T20:36:49.777Z,102355.97
2022-09-20T20:39:17.717Z,102394.75
2022-09-20T20:41:52.782Z,102390.38
2022-09-20T20:44:22.429Z,102383.41
2022-09-20T20:46:50.802Z,102401.81
2022-09-20T20:49:19.018Z,102383.34
2022-09-20T20:51:47.679Z,102403.59
2022-09-20T20:54:18.400Z,102391.28
2022-09-20T20:57:31.146Z,102396.56
2022-09-20T21:00:02.642Z,102429.94
2022-09-20T21:02:31.518Z,102400.06
2022-09-20T21:04:59.472Z,102407.13
2022-09-20T21:07:28.360Z,102437.00
2022-09-20T21:09:58.219Z,102400.94
2022-09-20T21:12:26.158Z,102436.13
2022-09-20T21:14:58.150Z,102433.47
2022-09-20T21:17:26.627Z,102422.03
2022-09-20T21:19:54.808Z,102439.63
2022-09-20T21:22:22.624Z,102436.97
2022-09-20T21:24:50.811Z,102434.31
2022-09-20T21:27:29.774Z,102422.03
2022-09-20T21:29:58.297Z,102430.84
2022-09-20T21:32:26.300Z,102449.31
2022-09-20T21:34:55.238Z,102443.13
2022-09-20T21:37:23.542Z,102421.94
2022-09-20T21:39:52.209Z,102442.97
2022-09-20T21:42:20.156Z,102445.72
2022-09-20T21:44:51.707Z,102438.72
2022-09-20T21:47:20.275Z,102452.75
2022-09-20T21:49:48.978Z,102443.94
2022-09-20T21:52:17.023Z,102434.34
2022-09-20T21:54:46.424Z,102441.41
2022-09-20T21:57:19.096Z,102442.25
2022-09-20T21:59:48.387Z,102441.31
2022-09-20T22:02:18.054Z,102459.69
2022-09-20T22:04:46.139Z,102453.53
2022-09-20T22:07:13.970Z,102459.56
2022-09-20T22:09:42.751Z,102450.88
2022-09-20T22:12:14.697Z,102451.84
2022-09-20T22:14:47.510Z,102444.00
2022-09-20T22:17:19.916Z,102463.34
2022-09-20T22:19:48.459Z,102431.63
2022-09-20T22:22:16.732Z,102442.16
2022-09-20T22:24:45.018Z,102434.22
2022-09-20T22:27:13.393Z,102453.59
2022-09-20T22:29:41.796Z,102455.13
2022-09-20T22:32:10.361Z,102437.44
2022-09-20T22:34:40.003Z,102461.22
2022-09-20T22:37:08.473Z,102455.03
2022-09-20T22:39:36.892Z,102458.59
2022-09-20T22:42:05.213Z,102464.72
2022-09-20T22:44:34.401Z,102465.44
2022-09-20T22:47:03.664Z,102459.56
2022-09-20T22:49:32.003Z,102464.06
2022-09-20T22:52:02.889Z,102445.59
2022-09-20T22:54:31.141Z,102461.50
2022-09-20T22:56:59.544Z,102440.16
2022-09-20T22:59:28.779Z,102458.78
2022-09-20T23:01:58.153Z,102446.34
2022-09-20T23:04:26.360Z,102449.19
2022-09-20T23:06:56.043Z,102467.63
2022-09-20T23:09:28.821Z,102462.38
2022-09-20T23:11:57.511Z,102462.13
2022-09-20T23:14:25.744Z,102452.19
2022-09-20T23:16:54.200Z,102455.06
2022-09-20T23:19:22.641Z,102457.38
2022-09-20T23:21:51.862Z,102414.09
2022-09-20T23:24:20.303Z,102434.28
2022-09-20T23:26:50.420Z,102433.56
2022-09-20T23:29:18.739Z,102471.94
2022-09-20T23:31:48.961Z,102458.72
2022-09-20T23:34:18.529Z,102471.13
2022-09-20T23:36:47.582Z,102460.25
2022-09-20T23:39:16.516Z,102457.38
2022-09-20T23:41:50.659Z,102471.41
2022-09-20T23:44:22.010Z,102477.72
2022-09-20T23:46:53.451Z,102477.69
2022-09-20T23:49:21.806Z,102484.00
2022-09-20T23:51:49.985Z,102477.75
2022-09-20T23:54:18.258Z,102492.59
2022-09-20T23:56:46.565Z,102484.56
2022-09-20T23:59:14.793Z,102481.97
